sensor_id;sensor_type;location;lat;lon;timestamp;temperature;humidity
20759;DHT22;10539;53.686;9.158;2022-07-09T00:00:38;16.90;99.90
20759;DHT22;10539;53.686;9.158;2022-07-09T00:03:04;16.90;99.90
20759;DHT22;10539;53.686;9.158;2022-07-09T00:05:30;16.80;99.90
20759;DHT22;10539;53.686;9.158;2022-07-09T00:07:56;16.80;99.90
20759;DHT22;10539;53.686;9.158;2022-07-09T00:10:21;16.80;99.90
20759;DHT22;10539;53.686;9.158;2022-07-09T00:12:48;16.70;99.90
20759;DHT22;10539;53.686;9.158;2022-07-09T00:15:13;16.70;99.90
20759;DHT22;10539;53.686;9.158;2022-07-09T00:17:39;16.70;99.90
20759;DHT22;10539;53.686;9.158;2022-07-09T00:20:06;16.70;99.90
20759;DHT22;10539;53.686;9.158;2022-07-09T00:22:32;16.70;99.90
20759;DHT22;10539;53.686;9.158;2022-07-09T00:24:59;16.70;99.90
20759;DHT22;10539;53.686;9.158;2022-07-09T00:27:25;16.70;99.90
20759;DHT22;10539;53.686;9.158;2022-07-09T00:29:50;16.80;99.90
20759;DHT22;10539;53.686;9.158;2022-07-09T00:32:16;16.80;99.90
20759;DHT22;10539;53.686;9.158;2022-07-09T00:34:44;16.80;99.90
20759;DHT22;10539;53.686;9.158;2022-07-09T00:37:09;16.90;99.90
20759;DHT22;10539;53.686;9.158;2022-07-09T00:39:37;16.90;99.90
20759;DHT22;10539;53.686;9.158;2022-07-09T00:42:08;16.90;99.90
20759;DHT22;10539;53.686;9.158;2022-07-09T00:44:35;17.00;99.90
20759;DHT22;10539;53.686;9.158;2022-07-09T00:47:02;17.00;99.90
20759;DHT22;10539;53.686;9.158;2022-07-09T00:49:29;17.00;99.90
20759;DHT22;10539;53.686;9.158;2022-07-09T00:51:56;17.00;99.90
20759;DHT22;10539;53.686;9.158;2022-07-09T00:54:23;17.00;99.90
20759;DHT22;10539;53.686;9.158;2022-07-09T00:56:53;17.00;99.90
20759;DHT22;10539;53.686;9.158;2022-07-09T00:59:21;17.00;99.90
20759;DHT22;10539;53.686;9.158;2022-07-09T01:01:49;17.10;99.90
20759;DHT22;10539;53.686;9.158;2022-07-09T01:04:15;17.10;99.90
20759;DHT22;10539;53.686;9.158;2022-07-09T01:06:40;17.10;99.90
20759;DHT22;10539;53.686;9.158;2022-07-09T01:09:06;17.20;99.90
20759;DHT22;10539;53.686;9.158;2022-07-09T01:11:32;17.10;99.90
20759;DHT22;10539;53.686;9.158;2022-07-09T01:13:58;17.10;99.90
20759;DHT22;10539;53.686;9.158;2022-07-09T01:16:32;17.10;99.90
20759;DHT22;10539;53.686;9.158;2022-07-09T01:18:58;17.10;99.90
20759;DHT22;10539;53.686;9.158;2022-07-09T01:21:24;17.10;99.90
20759;DHT22;10539;53.686;9.158;2022-07-09T01:23:49;17.10;99.90
20759;DHT22;10539;53.686;9.158;2022-07-09T01:26:15;17.10;99.90
20759;DHT22;10539;53.686;9.158;2022-07-09T01:28:42;17.10;99.90
20759;DHT22;10539;53.686;9.158;2022-07-09T01:31:07;17.10;99.90
20759;DHT22;10539;53.686;9.158;2022-07-09T01:33:33;17.10;99.90
20759;DHT22;10539;53.686;9.158;2022-07-09T01:35:59;17.10;99.90
20759;DHT22;10539;53.686;9.158;2022-07-09T01:38:25;17.00;99.90
20759;DHT22;10539;53.686;9.158;2022-07-09T01:40:51;17.00;99.90
20759;DHT22;10539;53.686;9.158;2022-07-09T01:43:16;17.00;99.90
20759;DHT22;10539;53.686;9.158;2022-07-09T01:45:42;17.00;99.90
20759;DHT22;10539;53.686;9.158;2022-07-09T01:48:08;17.00;99.90
20759;DHT22;10539;53.686;9.158;2022-07-09T01:50:34;17.00;99.90
20759;DHT22;10539;53.686;9.158;2022-07-09T01:53:00;17.00;99.90
20759;DHT22;10539;53.686;9.158;2022-07-09T01:55:25;16.90;99.90
20759;DHT22;10539;53.686;9.158;2022-07-09T01:57:51;17.00;99.90
20759;DHT22;10539;53.686;9.158;2022-07-09T02:00:17;17.00;99.90
20759;DHT22;10539;53.686;9.158;2022-07-09T02:02:44;17.00;99.90
20759;DHT22;10539;53.686;9.158;2022-07-09T02:05:10;17.00;99.90
20759;DHT22;10539;53.686;9.158;2022-07-09T02:07:36;17.00;99.90
20759;DHT22;10539;53.686;9.158;2022-07-09T02:10:06;17.00;99.90
20759;DHT22;10539;53.686;9.158;2022-07-09T02:12:32;16.90;99.90
20759;DHT22;10539;53.686;9.158;2022-07-09T02:14:58;16.90;99.90
20759;DHT22;10539;53.686;9.158;2022-07-09T02:17:23;16.90;99.90
20759;DHT22;10539;53.686;9.158;2022-07-09T02:19:50;16.90;99.90
20759;DHT22;10539;53.686;9.158;2022-07-09T02:22:15;16.90;99.90
20759;DHT22;10539;53.686;9.158;2022-07-09T02:24:41;16.90;99.90
20759;DHT22;10539;53.686;9.158;2022-07-09T02:27:07;16.90;99.90
20759;DHT22;10539;53.686;9.158;2022-07-09T02:29:33;17.00;99.90
20759;DHT22;10539;53.686;9.158;2022-07-09T02:31:58;17.00;99.90
20759;DHT22;10539;53.686;9.158;2022-07-09T02:34:24;17.00;99.90
20759;DHT22;10539;53.686;9.158;2022-07-09T02:36:51;16.90;99.90
20759;DHT22;10539;53.686;9.158;2022-07-09T02:39:17;17.00;99.90
20759;DHT22;10539;53.686;9.158;2022-07-09T02:41:43;16.90;99.90
20759;DHT22;10539;53.686;9.158;2022-07-09T02:44:11;16.90;99.90
20759;DHT22;10539;53.686;9.158;2022-07-09T02:46:37;16.80;99.90
20759;DHT22;10539;53.686;9.158;2022-07-09T02:49:03;16.90;99.90
20759;DHT22;10539;53.686;9.158;2022-07-09T02:51:29;16.90;99.90
20759;DHT22;10539;53.686;9.158;2022-07-09T02:53:55;16.90;99.90
20759;DHT22;10539;53.686;9.158;2022-07-09T02:56:21;16.90;99.90
20759;DHT22;10539;53.686;9.158;2022-07-09T02:58:46;16.90;99.90
20759;DHT22;10539;53.686;9.158;2022-07-09T03:01:15;16.90;99.90
20759;DHT22;10539;53.686;9.158;2022-07-09T03:03:46;16.90;99.90
20759;DHT22;10539;53.686;9.158;2022-07-09T03:06:14;16.90;99.90
20759;DHT22;10539;53.686;9.158;2022-07-09T03:08:40;16.90;99.90
20759;DHT22;10539;53.686;9.158;2022-07-09T03:11:06;16.80;99.90
20759;DHT22;10539;53.686;9.158;2022-07-09T03:13:38;16.90;99.90
20759;DHT22;10539;53.686;9.158;2022-07-09T03:16:04;16.90;99.90
20759;DHT22;10539;53.686;9.158;2022-07-09T03:18:34;16.90;99.90
20759;DHT22;10539;53.686;9.158;2022-07-09T03:21:03;17.00;99.90
20759;DHT22;10539;53.686;9.158;2022-07-09T03:23:29;17.00;99.90
20759;DHT22;10539;53.686;9.158;2022-07-09T03:25:55;17.00;99.90
20759;DHT22;10539;53.686;9.158;2022-07-09T03:28:20;17.00;99.90
20759;DHT22;10539;53.686;9.158;2022-07-09T03:30:49;17.00;99.90
20759;DHT22;10539;53.686;9.158;2022-07-09T03:33:18;17.00;99.90
20759;DHT22;10539;53.686;9.158;2022-07-09T03:35:46;16.90;99.90
20759;DHT22;10539;53.686;9.158;2022-07-09T03:38:22;17.00;99.90
20759;DHT22;10539;53.686;9.158;2022-07-09T03:40:50;17.00;99.90
20759;DHT22;10539;53.686;9.158;2022-07-09T03:43:19;17.00;99.90
20759;DHT22;10539;53.686;9.158;2022-07-09T03:45:50;17.00;99.90
20759;DHT22;10539;53.686;9.158;2022-07-09T03:48:15;17.00;99.90
20759;DHT22;10539;53.686;9.158;2022-07-09T03:50:41;17.00;99.90
20759;DHT22;10539;53.686;9.158;2022-07-09T03:53:07;17.00;99.90
20759;DHT22;10539;53.686;9.158;2022-07-09T03:55:33;17.00;99.90
20759;DHT22;10539;53.686;9.158;2022-07-09T03:57:59;17.10;99.90
20759;DHT22;10539;53.686;9.158;2022-07-09T04:00:25;17.10;99.90
20759;DHT22;10539;53.686;9.158;2022-07-09T04:02:51;17.10;99.90
20759;DHT22;10539;53.686;9.158;2022-07-09T04:05:17;17.10;99.90
20759;DHT22;10539;53.686;9.158;2022-07-09T04:07:42;17.10;99.90
20759;DHT22;10539;53.686;9.158;2022-07-09T04:10:11;17.10;99.90
20759;DHT22;10539;53.686;9.158;2022-07-09T04:12:37;17.10;99.90
20759;DHT22;10539;53.686;9.158;2022-07-09T04:15:06;17.10;99.90
20759;DHT22;10539;53.686;9.158;2022-07-09T04:17:32;17.10;99.90
20759;DHT22;10539;53.686;9.158;2022-07-09T04:20:06;17.10;99.90
20759;DHT22;10539;53.686;9.158;2022-07-09T04:22:33;17.10;99.90
20759;DHT22;10539;53.686;9.158;2022-07-09T04:25:05;17.00;99.90
20759;DHT22;10539;53.686;9.158;2022-07-09T04:27:34;17.00;99.90
20759;DHT22;10539;53.686;9.158;2022-07-09T04:30:05;17.00;99.90
20759;DHT22;10539;53.686;9.158;2022-07-09T04:32:37;17.00;99.90
20759;DHT22;10539;53.686;9.158;2022-07-09T04:35:06;17.00;99.90
20759;DHT22;10539;53.686;9.158;2022-07-09T04:37:32;17.10;99.90
20759;DHT22;10539;53.686;9.158;2022-07-09T04:39:58;17.10;99.90
20759;DHT22;10539;53.686;9.158;2022-07-09T04:42:27;17.10;99.90
20759;DHT22;10539;53.686;9.158;2022-07-09T04:44:55;17.10;99.90
20759;DHT22;10539;53.686;9.158;2022-07-09T04:47:23;17.10;99.90
20759;DHT22;10539;53.686;9.158;2022-07-09T04:49:48;17.10;99.90
20759;DHT22;10539;53.686;9.158;2022-07-09T04:52:23;17.10;99.90
20759;DHT22;10539;53.686;9.158;2022-07-09T04:54:57;17.20;99.90
20759;DHT22;10539;53.686;9.158;2022-07-09T04:57:23;17.20;99.90
20759;DHT22;10539;53.686;9.158;2022-07-09T05:00:03;17.20;99.90
20759;DHT22;10539;53.686;9.158;2022-07-09T05:02:31;17.20;99.90
20759;DHT22;10539;53.686;9.158;2022-07-09T05:04:57;17.20;99.90
20759;DHT22;10539;53.686;9.158;2022-07-09T05:07:23;17.20;99.90
20759;DHT22;10539;53.686;9.158;2022-07-09T05:09:48;17.20;99.90
20759;DHT22;10539;53.686;9.158;2022-07-09T05:12:14;17.20;99.90
20759;DHT22;10539;53.686;9.158;2022-07-09T05:14:46;17.20;99.90
20759;DHT22;10539;53.686;9.158;2022-07-09T05:17:12;17.30;99.90
20759;DHT22;10539;53.686;9.158;2022-07-09T05:19:38;17.30;99.90
20759;DHT22;10539;53.686;9.158;2022-07-09T05:22:04;17.30;99.90
20759;DHT22;10539;53.686;9.158;2022-07-09T05:24:30;17.40;99.90
20759;DHT22;10539;53.686;9.158;2022-07-09T05:26:58;17.40;99.90
20759;DHT22;10539;53.686;9.158;2022-07-09T05:29:24;17.40;99.90
20759;DHT22;10539;53.686;9.158;2022-07-09T05:31:52;17.50;99.90
20759;DHT22;10539;53.686;9.158;2022-07-09T05:34:17;17.50;99.90
20759;DHT22;10539;53.686;9.158;2022-07-09T05:36:44;17.50;99.90
20759;DHT22;10539;53.686;9.158;2022-07-09T05:39:09;17.60;99.90
20759;DHT22;10539;53.686;9.158;2022-07-09T05:41:44;17.60;99.90
20759;DHT22;10539;53.686;9.158;2022-07-09T05:44:10;17.60;99.90
20759;DHT22;10539;53.686;9.158;2022-07-09T05:46:36;17.70;99.90
20759;DHT22;10539;53.686;9.158;2022-07-09T05:49:05;17.70;99.90
20759;DHT22;10539;53.686;9.158;2022-07-09T05:51:32;17.80;99.90
20759;DHT22;10539;53.686;9.158;2022-07-09T05:53:58;17.80;99.90
20759;DHT22;10539;53.686;9.158;2022-07-09T05:56:24;17.80;99.90
20759;DHT22;10539;53.686;9.158;2022-07-09T05:58:52;18.00;99.90
20759;DHT22;10539;53.686;9.158;2022-07-09T06:01:18;18.00;99.90
20759;DHT22;10539;53.686;9.158;2022-07-09T06:03:44;18.00;99.90
20759;DHT22;10539;53.686;9.158;2022-07-09T06:06:10;18.10;99.90
20759;DHT22;10539;53.686;9.158;2022-07-09T06:08:38;18.20;99.90
20759;DHT22;10539;53.686;9.158;2022-07-09T06:11:04;18.30;99.90
20759;DHT22;10539;53.686;9.158;2022-07-09T06:13:35;18.30;99.90
20759;DHT22;10539;53.686;9.158;2022-07-09T06:16:01;18.30;99.90
20759;DHT22;10539;53.686;9.158;2022-07-09T06:18:27;18.40;99.90
20759;DHT22;10539;53.686;9.158;2022-07-09T06:20:53;18.50;99.90
20759;DHT22;10539;53.686;9.158;2022-07-09T06:23:19;18.50;99.90
20759;DHT22;10539;53.686;9.158;2022-07-09T06:25:46;18.60;99.90
20759;DHT22;10539;53.686;9.158;2022-07-09T06:28:12;18.60;99.90
20759;DHT22;10539;53.686;9.158;2022-07-09T06:30:40;18.70;99.90
20759;DHT22;10539;53.686;9.158;2022-07-09T06:33:09;18.80;99.90
20759;DHT22;10539;53.686;9.158;2022-07-09T06:35:35;18.90;99.90
20759;DHT22;10539;53.686;9.158;2022-07-09T06:38:03;19.10;99.90
20759;DHT22;10539;53.686;9.158;2022-07-09T06:40:30;19.20;99.90
20759;DHT22;10539;53.686;9.158;2022-07-09T06:42:56;19.20;99.90
20759;DHT22;10539;53.686;9.158;2022-07-09T06:45:25;19.30;99.90
20759;DHT22;10539;53.686;9.158;2022-07-09T06:47:50;19.40;99.90
20759;DHT22;10539;53.686;9.158;2022-07-09T06:50:27;19.40;99.90
20759;DHT22;10539;53.686;9.158;2022-07-09T06:52:53;19.40;99.90
20759;DHT22;10539;53.686;9.158;2022-07-09T06:55:22;19.40;99.90
20759;DHT22;10539;53.686;9.158;2022-07-09T06:57:47;19.50;99.90
20759;DHT22;10539;53.686;9.158;2022-07-09T07:00:14;19.60;99.90
20759;DHT22;10539;53.686;9.158;2022-07-09T07:02:40;19.60;99.90
20759;DHT22;10539;53.686;9.158;2022-07-09T07:05:06;19.70;99.90
20759;DHT22;10539;53.686;9.158;2022-07-09T07:07:32;19.70;99.90
20759;DHT22;10539;53.686;9.158;2022-07-09T07:09:58;19.70;99.90
20759;DHT22;10539;53.686;9.158;2022-07-09T07:12:24;19.80;99.90
20759;DHT22;10539;53.686;9.158;2022-07-09T07:14:49;19.90;99.90
20759;DHT22;10539;53.686;9.158;2022-07-09T07:17:16;20.00;99.90
20759;DHT22;10539;53.686;9.158;2022-07-09T07:19:42;20.10;99.90
20759;DHT22;10539;53.686;9.158;2022-07-09T07:22:08;20.30;99.90
20759;DHT22;10539;53.686;9.158;2022-07-09T07:24:33;20.60;99.90
20759;DHT22;10539;53.686;9.158;2022-07-09T07:27:02;20.70;99.90
20759;DHT22;10539;53.686;9.158;2022-07-09T07:29:30;20.60;99.90
20759;DHT22;10539;53.686;9.158;2022-07-09T07:31:56;20.50;99.90
20759;DHT22;10539;53.686;9.158;2022-07-09T07:34:23;20.30;99.90
20759;DHT22;10539;53.686;9.158;2022-07-09T07:36:50;20.20;99.90
20759;DHT22;10539;53.686;9.158;2022-07-09T07:39:17;20.20;99.90
20759;DHT22;10539;53.686;9.158;2022-07-09T07:41:43;20.20;99.90
20759;DHT22;10539;53.686;9.158;2022-07-09T07:44:09;20.20;99.90
20759;DHT22;10539;53.686;9.158;2022-07-09T07:46:35;20.10;99.90
20759;DHT22;10539;53.686;9.158;2022-07-09T07:49:01;20.10;99.90
20759;DHT22;10539;53.686;9.158;2022-07-09T07:51:27;20.20;99.90
20759;DHT22;10539;53.686;9.158;2022-07-09T07:53:53;20.20;99.90
20759;DHT22;10539;53.686;9.158;2022-07-09T07:56:19;20.20;99.90
20759;DHT22;10539;53.686;9.158;2022-07-09T07:58:44;20.20;99.90
20759;DHT22;10539;53.686;9.158;2022-07-09T08:01:10;20.20;99.90
20759;DHT22;10539;53.686;9.158;2022-07-09T08:03:36;20.30;99.90
20759;DHT22;10539;53.686;9.158;2022-07-09T08:06:02;20.40;99.90
20759;DHT22;10539;53.686;9.158;2022-07-09T08:08:27;20.50;99.90
20759;DHT22;10539;53.686;9.158;2022-07-09T08:10:53;20.60;99.90
20759;DHT22;10539;53.686;9.158;2022-07-09T08:13:22;20.80;99.90
20759;DHT22;10539;53.686;9.158;2022-07-09T08:15:48;21.00;99.90
20759;DHT22;10539;53.686;9.158;2022-07-09T08:18:14;21.00;99.90
20759;DHT22;10539;53.686;9.158;2022-07-09T08:20:41;20.90;99.90
20759;DHT22;10539;53.686;9.158;2022-07-09T08:23:10;20.70;99.90
20759;DHT22;10539;53.686;9.158;2022-07-09T08:25:39;20.70;99.90
20759;DHT22;10539;53.686;9.158;2022-07-09T08:28:12;20.90;99.90
20759;DHT22;10539;53.686;9.158;2022-07-09T08:30:40;21.10;99.90
20759;DHT22;10539;53.686;9.158;2022-07-09T08:33:06;21.20;99.90
20759;DHT22;10539;53.686;9.158;2022-07-09T08:35:33;21.30;99.90
20759;DHT22;10539;53.686;9.158;2022-07-09T08:37:59;21.30;99.90
20759;DHT22;10539;53.686;9.158;2022-07-09T08:40:28;21.10;99.90
20759;DHT22;10539;53.686;9.158;2022-07-09T08:42:57;20.90;99.90
20759;DHT22;10539;53.686;9.158;2022-07-09T08:45:29;20.80;99.90
20759;DHT22;10539;53.686;9.158;2022-07-09T08:47:55;20.90;99.90
20759;DHT22;10539;53.686;9.158;2022-07-09T08:50:21;20.90;99.90
20759;DHT22;10539;53.686;9.158;2022-07-09T08:52:51;21.10;99.90
20759;DHT22;10539;53.686;9.158;2022-07-09T08:55:21;21.10;99.90
20759;DHT22;10539;53.686;9.158;2022-07-09T08:57:46;21.10;99.90
20759;DHT22;10539;53.686;9.158;2022-07-09T09:00:12;21.30;99.90
20759;DHT22;10539;53.686;9.158;2022-07-09T09:02:38;21.40;99.90
20759;DHT22;10539;53.686;9.158;2022-07-09T09:05:12;21.30;99.90
20759;DHT22;10539;53.686;9.158;2022-07-09T09:07:38;21.40;99.90
20759;DHT22;10539;53.686;9.158;2022-07-09T09:10:04;21.60;99.90
20759;DHT22;10539;53.686;9.158;2022-07-09T09:12:33;21.60;99.90
20759;DHT22;10539;53.686;9.158;2022-07-09T09:14:59;21.40;99.90
20759;DHT22;10539;53.686;9.158;2022-07-09T09:17:25;21.30;99.90
20759;DHT22;10539;53.686;9.158;2022-07-09T09:19:51;21.30;99.90
20759;DHT22;10539;53.686;9.158;2022-07-09T09:22:24;21.40;99.90
20759;DHT22;10539;53.686;9.158;2022-07-09T09:24:50;21.50;99.90
20759;DHT22;10539;53.686;9.158;2022-07-09T09:27:29;21.40;99.90
20759;DHT22;10539;53.686;9.158;2022-07-09T09:29:57;21.40;99.90
20759;DHT22;10539;53.686;9.158;2022-07-09T09:32:24;21.50;99.90
20759;DHT22;10539;53.686;9.158;2022-07-09T09:34:52;21.50;99.90
20759;DHT22;10539;53.686;9.158;2022-07-09T09:37:28;21.60;99.90
20759;DHT22;10539;53.686;9.158;2022-07-09T09:39:57;21.60;99.90
20759;DHT22;10539;53.686;9.158;2022-07-09T09:42:24;21.70;99.90
20759;DHT22;10539;53.686;9.158;2022-07-09T09:44:51;21.80;99.90
20759;DHT22;10539;53.686;9.158;2022-07-09T09:47:20;22.00;99.90
20759;DHT22;10539;53.686;9.158;2022-07-09T09:49:49;22.30;99.90
20759;DHT22;10539;53.686;9.158;2022-07-09T09:52:15;22.50;99.90
20759;DHT22;10539;53.686;9.158;2022-07-09T09:54:41;22.60;99.90
20759;DHT22;10539;53.686;9.158;2022-07-09T09:57:13;22.50;99.90
20759;DHT22;10539;53.686;9.158;2022-07-09T09:59:48;22.30;99.90
20759;DHT22;10539;53.686;9.158;2022-07-09T10:02:16;22.00;99.90
20759;DHT22;10539;53.686;9.158;2022-07-09T10:04:46;21.50;99.90
20759;DHT22;10539;53.686;9.158;2022-07-09T10:07:13;21.10;99.90
20759;DHT22;10539;53.686;9.158;2022-07-09T10:09:40;20.90;99.90
20759;DHT22;10539;53.686;9.158;2022-07-09T10:12:07;20.80;99.90
20759;DHT22;10539;53.686;9.158;2022-07-09T10:14:39;20.60;99.90
20759;DHT22;10539;53.686;9.158;2022-07-09T10:17:17;20.60;99.90
20759;DHT22;10539;53.686;9.158;2022-07-09T10:19:53;20.60;99.90
20759;DHT22;10539;53.686;9.158;2022-07-09T10:22:19;20.60;99.90
20759;DHT22;10539;53.686;9.158;2022-07-09T10:24:46;20.70;99.90
20759;DHT22;10539;53.686;9.158;2022-07-09T10:27:18;20.90;99.90
20759;DHT22;10539;53.686;9.158;2022-07-09T10:29:58;21.20;99.90
20759;DHT22;10539;53.686;9.158;2022-07-09T10:32:28;21.20;99.90
20759;DHT22;10539;53.686;9.158;2022-07-09T10:37:31;21.10;99.90
20759;DHT22;10539;53.686;9.158;2022-07-09T10:40:08;21.00;99.90
20759;DHT22;10539;53.686;9.158;2022-07-09T10:42:37;20.90;99.90
20759;DHT22;10539;53.686;9.158;2022-07-09T10:47:44;20.90;99.90
20759;DHT22;10539;53.686;9.158;2022-07-09T10:50:12;21.00;99.90
20759;DHT22;10539;53.686;9.158;2022-07-09T10:52:39;21.20;99.90
20759;DHT22;10539;53.686;9.158;2022-07-09T10:55:05;21.40;99.90
20759;DHT22;10539;53.686;9.158;2022-07-09T10:57:31;21.40;99.90
20759;DHT22;10539;53.686;9.158;2022-07-09T10:59:59;21.30;99.90
20759;DHT22;10539;53.686;9.158;2022-07-09T11:02:25;21.20;99.90
20759;DHT22;10539;53.686;9.158;2022-07-09T11:04:52;21.30;99.90
20759;DHT22;10539;53.686;9.158;2022-07-09T11:07:25;21.30;99.90
20759;DHT22;10539;53.686;9.158;2022-07-09T11:09:52;21.40;99.90
20759;DHT22;10539;53.686;9.158;2022-07-09T11:12:22;21.30;99.90
20759;DHT22;10539;53.686;9.158;2022-07-09T11:14:54;21.20;99.90
20759;DHT22;10539;53.686;9.158;2022-07-09T11:17:21;21.20;99.90
20759;DHT22;10539;53.686;9.158;2022-07-09T11:19:48;21.20;99.90
20759;DHT22;10539;53.686;9.158;2022-07-09T11:22:16;21.30;99.90
20759;DHT22;10539;53.686;9.158;2022-07-09T11:24:42;21.30;99.90
20759;DHT22;10539;53.686;9.158;2022-07-09T11:27:09;21.20;99.90
20759;DHT22;10539;53.686;9.158;2022-07-09T11:29:36;21.30;99.90
20759;DHT22;10539;53.686;9.158;2022-07-09T11:32:05;21.10;99.90
20759;DHT22;10539;53.686;9.158;2022-07-09T11:34:33;21.00;99.90
20759;DHT22;10539;53.686;9.158;2022-07-09T11:36:59;21.00;99.90
20759;DHT22;10539;53.686;9.158;2022-07-09T11:39:32;20.90;99.90
20759;DHT22;10539;53.686;9.158;2022-07-09T11:42:00;20.90;99.90
20759;DHT22;10539;53.686;9.158;2022-07-09T11:44:31;20.90;99.90
20759;DHT22;10539;53.686;9.158;2022-07-09T11:47:07;20.90;99.90
20759;DHT22;10539;53.686;9.158;2022-07-09T11:49:50;21.00;99.90
20759;DHT22;10539;53.686;9.158;2022-07-09T11:52:21;20.90;99.90
20759;DHT22;10539;53.686;9.158;2022-07-09T11:55:06;20.80;99.90
20759;DHT22;10539;53.686;9.158;2022-07-09T11:57:37;20.80;99.90
20759;DHT22;10539;53.686;9.158;2022-07-09T12:00:08;20.80;99.90
20759;DHT22;10539;53.686;9.158;2022-07-09T12:02:51;20.90;99.90
20759;DHT22;10539;53.686;9.158;2022-07-09T12:05:37;21.00;99.90
20759;DHT22;10539;53.686;9.158;2022-07-09T12:08:10;21.00;99.90
20759;DHT22;10539;53.686;9.158;2022-07-09T12:10:38;21.00;99.90
20759;DHT22;10539;53.686;9.158;2022-07-09T12:13:05;20.90;99.90
20759;DHT22;10539;53.686;9.158;2022-07-09T12:15:32;21.00;99.90
20759;DHT22;10539;53.686;9.158;2022-07-09T12:18:01;21.00;99.90
20759;DHT22;10539;53.686;9.158;2022-07-09T12:20:29;21.10;99.90
20759;DHT22;10539;53.686;9.158;2022-07-09T12:23:00;21.10;99.90
20759;DHT22;10539;53.686;9.158;2022-07-09T12:25:36;21.10;99.90
20759;DHT22;10539;53.686;9.158;2022-07-09T12:28:02;21.10;99.90
20759;DHT22;10539;53.686;9.158;2022-07-09T12:30:28;21.00;99.90
20759;DHT22;10539;53.686;9.158;2022-07-09T12:33:00;20.80;99.90
20759;DHT22;10539;53.686;9.158;2022-07-09T12:35:26;20.60;99.90
20759;DHT22;10539;53.686;9.158;2022-07-09T12:37:58;20.50;99.90
20759;DHT22;10539;53.686;9.158;2022-07-09T12:40:24;20.60;99.90
20759;DHT22;10539;53.686;9.158;2022-07-09T12:42:50;20.60;99.90
20759;DHT22;10539;53.686;9.158;2022-07-09T12:45:18;20.50;99.90
20759;DHT22;10539;53.686;9.158;2022-07-09T12:47:46;20.40;99.90
20759;DHT22;10539;53.686;9.158;2022-07-09T12:50:15;20.50;99.90
20759;DHT22;10539;53.686;9.158;2022-07-09T12:52:41;20.70;99.90
20759;DHT22;10539;53.686;9.158;2022-07-09T12:55:09;20.90;99.90
20759;DHT22;10539;53.686;9.158;2022-07-09T12:57:36;21.00;99.90
20759;DHT22;10539;53.686;9.158;2022-07-09T13:00:09;21.10;99.90
20759;DHT22;10539;53.686;9.158;2022-07-09T13:02:35;21.20;99.90
20759;DHT22;10539;53.686;9.158;2022-07-09T13:05:03;21.20;99.90
20759;DHT22;10539;53.686;9.158;2022-07-09T13:07:34;21.10;99.90
20759;DHT22;10539;53.686;9.158;2022-07-09T13:10:03;21.20;99.90
20759;DHT22;10539;53.686;9.158;2022-07-09T13:12:29;21.40;99.90
20759;DHT22;10539;53.686;9.158;2022-07-09T13:15:01;21.50;99.90
20759;DHT22;10539;53.686;9.158;2022-07-09T13:17:27;21.60;99.90
20759;DHT22;10539;53.686;9.158;2022-07-09T13:19:53;21.70;99.90
20759;DHT22;10539;53.686;9.158;2022-07-09T13:22:21;21.60;99.90
20759;DHT22;10539;53.686;9.158;2022-07-09T13:24:50;21.40;99.90
20759;DHT22;10539;53.686;9.158;2022-07-09T13:27:19;21.20;99.90
20759;DHT22;10539;53.686;9.158;2022-07-09T13:29:45;21.00;99.90
20759;DHT22;10539;53.686;9.158;2022-07-09T13:32:11;20.90;99.90
20759;DHT22;10539;53.686;9.158;2022-07-09T13:34:37;20.80;99.90
20759;DHT22;10539;53.686;9.158;2022-07-09T13:37:03;20.70;99.90
20759;DHT22;10539;53.686;9.158;2022-07-09T13:39:32;20.70;99.90
20759;DHT22;10539;53.686;9.158;2022-07-09T13:42:00;20.80;99.90
20759;DHT22;10539;53.686;9.158;2022-07-09T13:44:26;20.80;99.90
20759;DHT22;10539;53.686;9.158;2022-07-09T13:46:52;20.90;99.90
20759;DHT22;10539;53.686;9.158;2022-07-09T13:49:22;21.00;99.90
20759;DHT22;10539;53.686;9.158;2022-07-09T13:51:52;21.00;99.90
20759;DHT22;10539;53.686;9.158;2022-07-09T13:54:21;21.00;99.90
20759;DHT22;10539;53.686;9.158;2022-07-09T13:56:49;21.00;99.90
20759;DHT22;10539;53.686;9.158;2022-07-09T13:59:20;20.90;99.90
20759;DHT22;10539;53.686;9.158;2022-07-09T14:01:49;20.90;99.90
20759;DHT22;10539;53.686;9.158;2022-07-09T14:04:23;20.80;99.90
20759;DHT22;10539;53.686;9.158;2022-07-09T14:06:49;20.70;99.90
20759;DHT22;10539;53.686;9.158;2022-07-09T14:09:16;20.60;99.90
20759;DHT22;10539;53.686;9.158;2022-07-09T14:11:45;20.60;99.90
20759;DHT22;10539;53.686;9.158;2022-07-09T14:14:11;20.60;99.90
20759;DHT22;10539;53.686;9.158;2022-07-09T14:16:39;20.50;99.90
20759;DHT22;10539;53.686;9.158;2022-07-09T14:19:05;20.30;99.90
20759;DHT22;10539;53.686;9.158;2022-07-09T14:21:31;20.20;99.90
20759;DHT22;10539;53.686;9.158;2022-07-09T14:23:57;20.10;99.90
20759;DHT22;10539;53.686;9.158;2022-07-09T14:26:31;20.00;99.90
20759;DHT22;10539;53.686;9.158;2022-07-09T14:28:57;20.00;99.90
20759;DHT22;10539;53.686;9.158;2022-07-09T14:31:23;20.10;99.90
20759;DHT22;10539;53.686;9.158;2022-07-09T14:33:58;20.20;99.90
20759;DHT22;10539;53.686;9.158;2022-07-09T14:36:24;20.10;99.90
20759;DHT22;10539;53.686;9.158;2022-07-09T14:38:58;20.00;99.90
20759;DHT22;10539;53.686;9.158;2022-07-09T14:41:29;19.90;99.90
20759;DHT22;10539;53.686;9.158;2022-07-09T14:43:55;20.00;99.90
20759;DHT22;10539;53.686;9.158;2022-07-09T14:46:21;20.10;99.90
20759;DHT22;10539;53.686;9.158;2022-07-09T14:48:47;20.00;99.90
20759;DHT22;10539;53.686;9.158;2022-07-09T14:51:13;20.00;99.90
20759;DHT22;10539;53.686;9.158;2022-07-09T14:53:42;20.00;99.90
20759;DHT22;10539;53.686;9.158;2022-07-09T14:56:08;19.90;99.90
20759;DHT22;10539;53.686;9.158;2022-07-09T14:58:33;20.00;99.90
20759;DHT22;10539;53.686;9.158;2022-07-09T15:01:00;20.20;99.90
20759;DHT22;10539;53.686;9.158;2022-07-09T15:03:25;20.40;99.90
20759;DHT22;10539;53.686;9.158;2022-07-09T15:05:55;20.50;99.90
20759;DHT22;10539;53.686;9.158;2022-07-09T15:08:20;20.40;99.90
20759;DHT22;10539;53.686;9.158;2022-07-09T15:10:46;20.30;99.90
20759;DHT22;10539;53.686;9.158;2022-07-09T15:13:15;20.10;99.90
20759;DHT22;10539;53.686;9.158;2022-07-09T15:15:41;20.00;99.90
20759;DHT22;10539;53.686;9.158;2022-07-09T15:18:09;19.80;99.90
20759;DHT22;10539;53.686;9.158;2022-07-09T15:20:35;19.70;99.90
20759;DHT22;10539;53.686;9.158;2022-07-09T15:23:01;19.70;99.90
20759;DHT22;10539;53.686;9.158;2022-07-09T15:25:28;19.70;99.90
20759;DHT22;10539;53.686;9.158;2022-07-09T15:27:57;19.80;99.90
20759;DHT22;10539;53.686;9.158;2022-07-09T15:30:26;19.80;99.90
20759;DHT22;10539;53.686;9.158;2022-07-09T15:32:52;19.70;99.90
20759;DHT22;10539;53.686;9.158;2022-07-09T15:35:23;19.60;99.90
20759;DHT22;10539;53.686;9.158;2022-07-09T15:37:52;19.70;99.90